sensor_id;sensor_type;location;lat;lon;timestamp;P1;durP1;ratioP1;P2;durP2;ratioP2
50225;SDS011;36113;50.742;6.432;2023-08-12T00:00:03;10.85;;;6.30;;
50225;SDS011;36113;50.742;6.432;2023-08-12T00:02:42;8.68;;;6.55;;
50225;SDS011;36113;50.742;6.432;2023-08-12T00:05:08;6.95;;;6.03;;
50225;SDS011;36113;50.742;6.432;2023-08-12T00:07:37;8.50;;;5.78;;
50225;SDS011;36113;50.742;6.432;2023-08-12T00:10:06;10.23;;;6.28;;
50225;SDS011;36113;50.742;6.432;2023-08-12T00:12:32;10.60;;;6.68;;
50225;SDS011;36113;50.742;6.432;2023-08-12T00:17:24;11.20;;;6.10;;
50225;SDS011;36113;50.742;6.432;2023-08-12T00:19:50;7.40;;;6.07;;
50225;SDS011;36113;50.742;6.432;2023-08-12T00:22:15;9.50;;;6.13;;
50225;SDS011;36113;50.742;6.432;2023-08-12T00:24:40;9.27;;;6.33;;
50225;SDS011;36113;50.742;6.432;2023-08-12T00:27:06;9.37;;;6.20;;
50225;SDS011;36113;50.742;6.432;2023-08-12T00:29:32;14.03;;;5.97;;
50225;SDS011;36113;50.742;6.432;2023-08-12T00:31:57;9.23;;;5.70;;
50225;SDS011;36113;50.742;6.432;2023-08-12T00:34:22;7.13;;;5.63;;
50225;SDS011;36113;50.742;6.432;2023-08-12T00:36:48;10.83;;;6.40;;
50225;SDS011;36113;50.742;6.432;2023-08-12T00:39:13;9.53;;;6.50;;
50225;SDS011;36113;50.742;6.432;2023-08-12T00:41:38;8.23;;;6.57;;
50225;SDS011;36113;50.742;6.432;2023-08-12T00:44:04;7.33;;;6.67;;
50225;SDS011;36113;50.742;6.432;2023-08-12T00:46:29;11.37;;;7.33;;
50225;SDS011;36113;50.742;6.432;2023-08-12T00:48:55;11.40;;;7.07;;
50225;SDS011;36113;50.742;6.432;2023-08-12T00:51:20;7.47;;;5.90;;
50225;SDS011;36113;50.742;6.432;2023-08-12T00:53:46;9.27;;;6.33;;
50225;SDS011;36113;50.742;6.432;2023-08-12T00:56:12;7.27;;;6.50;;
50225;SDS011;36113;50.742;6.432;2023-08-12T00:58:38;9.50;;;6.53;;
50225;SDS011;36113;50.742;6.432;2023-08-12T01:03:30;7.20;;;5.97;;
50225;SDS011;36113;50.742;6.432;2023-08-12T01:05:55;7.20;;;6.10;;
50225;SDS011;36113;50.742;6.432;2023-08-12T01:08:21;10.23;;;6.80;;
50225;SDS011;36113;50.742;6.432;2023-08-12T01:10:49;7.45;;;5.72;;
50225;SDS011;36113;50.742;6.432;2023-08-12T01:15:54;9.52;;;6.03;;
50225;SDS011;36113;50.742;6.432;2023-08-12T01:18:22;9.05;;;6.35;;
50225;SDS011;36113;50.742;6.432;2023-08-12T01:20:49;8.98;;;5.88;;
50225;SDS011;36113;50.742;6.432;2023-08-12T01:23:15;7.13;;;6.37;;
50225;SDS011;36113;50.742;6.432;2023-08-12T01:25:41;6.83;;;5.57;;
50225;SDS011;36113;50.742;6.432;2023-08-12T01:28:07;8.98;;;5.90;;
50225;SDS011;36113;50.742;6.432;2023-08-12T01:30:33;9.77;;;5.80;;
50225;SDS011;36113;50.742;6.432;2023-08-12T01:33:14;7.88;;;5.82;;
50225;SDS011;36113;50.742;6.432;2023-08-12T01:35:47;6.05;;;5.38;;
50225;SDS011;36113;50.742;6.432;2023-08-12T01:38:25;7.18;;;5.85;;
50225;SDS011;36113;50.742;6.432;2023-08-12T01:40:52;7.43;;;5.57;;
50225;SDS011;36113;50.742;6.432;2023-08-12T01:45:44;8.93;;;5.45;;
50225;SDS011;36113;50.742;6.432;2023-08-12T01:48:09;8.57;;;5.03;;
50225;SDS011;36113;50.742;6.432;2023-08-12T01:50:35;5.73;;;5.23;;
50225;SDS011;36113;50.742;6.432;2023-08-12T01:53:00;6.57;;;5.33;;
50225;SDS011;36113;50.742;6.432;2023-08-12T01:55:25;10.60;;;5.40;;
50225;SDS011;36113;50.742;6.432;2023-08-12T01:57:51;9.47;;;6.20;;
50225;SDS011;36113;50.742;6.432;2023-08-12T02:00:16;5.87;;;5.43;;
50225;SDS011;36113;50.742;6.432;2023-08-12T02:02:42;6.03;;;5.40;;
50225;SDS011;36113;50.742;6.432;2023-08-12T02:05:07;7.70;;;6.00;;
50225;SDS011;36113;50.742;6.432;2023-08-12T02:07:33;6.63;;;5.90;;
50225;SDS011;36113;50.742;6.432;2023-08-12T02:09:58;6.90;;;6.20;;
50225;SDS011;36113;50.742;6.432;2023-08-12T02:12:23;6.37;;;5.83;;
50225;SDS011;36113;50.742;6.432;2023-08-12T02:14:48;8.27;;;6.23;;
50225;SDS011;36113;50.742;6.432;2023-08-12T02:17:14;7.00;;;6.40;;
50225;SDS011;36113;50.742;6.432;2023-08-12T02:19:39;10.63;;;6.93;;
50225;SDS011;36113;50.742;6.432;2023-08-12T02:22:04;10.60;;;7.20;;
50225;SDS011;36113;50.742;6.432;2023-08-12T02:24:30;10.63;;;7.43;;
50225;SDS011;36113;50.742;6.432;2023-08-12T02:26:55;7.73;;;6.50;;
50225;SDS011;36113;50.742;6.432;2023-08-12T02:29:20;8.30;;;6.13;;
50225;SDS011;36113;50.742;6.432;2023-08-12T02:31:46;9.77;;;6.40;;
50225;SDS011;36113;50.742;6.432;2023-08-12T02:34:11;6.83;;;6.13;;
50225;SDS011;36113;50.742;6.432;2023-08-12T02:36:36;7.17;;;6.30;;
50225;SDS011;36113;50.742;6.432;2023-08-12T02:39:01;9.40;;;6.80;;
50225;SDS011;36113;50.742;6.432;2023-08-12T02:41:27;9.20;;;7.10;;
50225;SDS011;36113;50.742;6.432;2023-08-12T02:43:52;7.67;;;6.13;;
50225;SDS011;36113;50.742;6.432;2023-08-12T02:46:17;9.23;;;7.00;;
50225;SDS011;36113;50.742;6.432;2023-08-12T02:48:43;7.47;;;6.67;;
50225;SDS011;36113;50.742;6.432;2023-08-12T02:51:12;6.78;;;6.10;;
50225;SDS011;36113;50.742;6.432;2023-08-12T02:53:37;9.40;;;7.17;;
50225;SDS011;36113;50.742;6.432;2023-08-12T02:56:03;7.50;;;6.80;;
50225;SDS011;36113;50.742;6.432;2023-08-12T02:58:28;7.23;;;6.53;;
50225;SDS011;36113;50.742;6.432;2023-08-12T03:00:54;7.87;;;6.87;;
50225;SDS011;36113;50.742;6.432;2023-08-12T03:03:20;9.30;;;7.38;;
50225;SDS011;36113;50.742;6.432;2023-08-12T03:05:46;8.40;;;7.30;;
50225;SDS011;36113;50.742;6.432;2023-08-12T03:08:12;7.70;;;6.90;;
50225;SDS011;36113;50.742;6.432;2023-08-12T03:10:38;8.40;;;6.97;;
50225;SDS011;36113;50.742;6.432;2023-08-12T03:13:03;7.97;;;7.17;;
50225;SDS011;36113;50.742;6.432;2023-08-12T03:15:28;8.63;;;7.00;;
50225;SDS011;36113;50.742;6.432;2023-08-12T03:17:54;10.33;;;7.80;;
50225;SDS011;36113;50.742;6.432;2023-08-12T03:20:21;10.25;;;8.32;;
50225;SDS011;36113;50.742;6.432;2023-08-12T03:22:46;9.23;;;8.27;;
50225;SDS011;36113;50.742;6.432;2023-08-12T03:25:11;14.03;;;8.80;;
50225;SDS011;36113;50.742;6.432;2023-08-12T03:27:39;8.50;;;7.70;;
50225;SDS011;36113;50.742;6.432;2023-08-12T03:30:05;6.80;;;6.20;;
50225;SDS011;36113;50.742;6.432;2023-08-12T03:32:31;7.70;;;6.10;;
50225;SDS011;36113;50.742;6.432;2023-08-12T03:34:56;7.53;;;6.17;;
50225;SDS011;36113;50.742;6.432;2023-08-12T03:37:21;6.57;;;5.70;;
50225;SDS011;36113;50.742;6.432;2023-08-12T03:39:46;6.97;;;6.37;;
50225;SDS011;36113;50.742;6.432;2023-08-12T03:42:12;6.00;;;5.50;;
50225;SDS011;36113;50.742;6.432;2023-08-12T03:44:37;5.80;;;5.30;;
50225;SDS011;36113;50.742;6.432;2023-08-12T03:47:02;5.80;;;4.63;;
50225;SDS011;36113;50.742;6.432;2023-08-12T03:49:28;5.20;;;4.70;;
50225;SDS011;36113;50.742;6.432;2023-08-12T03:51:53;4.80;;;4.47;;
50225;SDS011;36113;50.742;6.432;2023-08-12T03:54:18;4.23;;;3.87;;
50225;SDS011;36113;50.742;6.432;2023-08-12T03:56:44;4.10;;;3.80;;
50225;SDS011;36113;50.742;6.432;2023-08-12T03:59:10;5.27;;;3.70;;
50225;SDS011;36113;50.742;6.432;2023-08-12T04:01:36;5.63;;;3.37;;
50225;SDS011;36113;50.742;6.432;2023-08-12T04:04:02;3.45;;;3.15;;
50225;SDS011;36113;50.742;6.432;2023-08-12T04:06:27;5.43;;;3.17;;
50225;SDS011;36113;50.742;6.432;2023-08-12T04:08:53;3.33;;;3.13;;
50225;SDS011;36113;50.742;6.432;2023-08-12T04:11:18;3.00;;;2.80;;
50225;SDS011;36113;50.742;6.432;2023-08-12T04:13:44;3.13;;;2.90;;
50225;SDS011;36113;50.742;6.432;2023-08-12T04:16:09;4.00;;;3.27;;
50225;SDS011;36113;50.742;6.432;2023-08-12T04:18:34;3.40;;;3.20;;
50225;SDS011;36113;50.742;6.432;2023-08-12T04:20:59;4.53;;;3.30;;
50225;SDS011;36113;50.742;6.432;2023-08-12T04:23:25;3.23;;;3.03;;
50225;SDS011;36113;50.742;6.432;2023-08-12T04:25:52;2.83;;;2.63;;
50225;SDS011;36113;50.742;6.432;2023-08-12T04:28:18;5.55;;;3.13;;
50225;SDS011;36113;50.742;6.432;2023-08-12T04:30:44;3.20;;;2.90;;
50225;SDS011;36113;50.742;6.432;2023-08-12T04:33:12;4.90;;;2.65;;
50225;SDS011;36113;50.742;6.432;2023-08-12T04:38:03;3.17;;;2.95;;
50225;SDS011;36113;50.742;6.432;2023-08-12T04:40:29;5.53;;;3.37;;
50225;SDS011;36113;50.742;6.432;2023-08-12T04:42:54;3.83;;;3.53;;
50225;SDS011;36113;50.742;6.432;2023-08-12T04:45:19;3.43;;;3.00;;
50225;SDS011;36113;50.742;6.432;2023-08-12T04:47:45;5.77;;;3.17;;
50225;SDS011;36113;50.742;6.432;2023-08-12T04:50:10;4.40;;;2.70;;
50225;SDS011;36113;50.742;6.432;2023-08-12T04:52:35;4.63;;;3.77;;
50225;SDS011;36113;50.742;6.432;2023-08-12T04:55:00;3.23;;;2.70;;
50225;SDS011;36113;50.742;6.432;2023-08-12T04:57:26;5.67;;;2.83;;
50225;SDS011;36113;50.742;6.432;2023-08-12T04:59:52;3.27;;;2.93;;
50225;SDS011;36113;50.742;6.432;2023-08-12T05:04:48;2.70;;;2.60;;
50225;SDS011;36113;50.742;6.432;2023-08-12T05:07:14;4.18;;;2.60;;
50225;SDS011;36113;50.742;6.432;2023-08-12T05:09:40;2.17;;;2.07;;
50225;SDS011;36113;50.742;6.432;2023-08-12T05:12:05;3.40;;;2.70;;
50225;SDS011;36113;50.742;6.432;2023-08-12T05:14:31;3.50;;;2.80;;
50225;SDS011;36113;50.742;6.432;2023-08-12T05:16:56;3.67;;;2.37;;
50225;SDS011;36113;50.742;6.432;2023-08-12T05:19:21;3.40;;;2.53;;
50225;SDS011;36113;50.742;6.432;2023-08-12T05:21:47;2.80;;;2.30;;
50225;SDS011;36113;50.742;6.432;2023-08-12T05:24:12;2.73;;;2.23;;
50225;SDS011;36113;50.742;6.432;2023-08-12T05:26:38;2.50;;;2.33;;
50225;SDS011;36113;50.742;6.432;2023-08-12T05:29:03;6.90;;;2.17;;
50225;SDS011;36113;50.742;6.432;2023-08-12T05:31:29;2.90;;;2.30;;
50225;SDS011;36113;50.742;6.432;2023-08-12T05:33:54;2.63;;;2.42;;
50225;SDS011;36113;50.742;6.432;2023-08-12T05:36:20;3.50;;;2.93;;
50225;SDS011;36113;50.742;6.432;2023-08-12T05:38:45;2.70;;;2.50;;
50225;SDS011;36113;50.742;6.432;2023-08-12T05:41:10;3.13;;;2.90;;
50225;SDS011;36113;50.742;6.432;2023-08-12T05:43:36;4.83;;;3.07;;
50225;SDS011;36113;50.742;6.432;2023-08-12T05:46:01;4.00;;;2.10;;
50225;SDS011;36113;50.742;6.432;2023-08-12T05:48:26;2.63;;;2.27;;
50225;SDS011;36113;50.742;6.432;2023-08-12T05:50:52;3.40;;;2.03;;
50225;SDS011;36113;50.742;6.432;2023-08-12T05:53:17;2.33;;;2.20;;
50225;SDS011;36113;50.742;6.432;2023-08-12T05:55:42;2.10;;;2.00;;
50225;SDS011;36113;50.742;6.432;2023-08-12T05:58:07;3.23;;;2.50;;
50225;SDS011;36113;50.742;6.432;2023-08-12T06:00:33;2.30;;;2.10;;
50225;SDS011;36113;50.742;6.432;2023-08-12T06:02:58;2.83;;;2.03;;
50225;SDS011;36113;50.742;6.432;2023-08-12T06:05:23;3.60;;;2.37;;
50225;SDS011;36113;50.742;6.432;2023-08-12T06:07:49;3.47;;;2.53;;
50225;SDS011;36113;50.742;6.432;2023-08-12T06:10:14;3.03;;;2.50;;
50225;SDS011;36113;50.742;6.432;2023-08-12T06:12:39;3.00;;;2.73;;
50225;SDS011;36113;50.742;6.432;2023-08-12T06:15:05;4.23;;;2.83;;
50225;SDS011;36113;50.742;6.432;2023-08-12T06:17:30;3.50;;;2.63;;
50225;SDS011;36113;50.742;6.432;2023-08-12T06:19:56;3.57;;;3.03;;
50225;SDS011;36113;50.742;6.432;2023-08-12T06:22:21;3.37;;;2.60;;
50225;SDS011;36113;50.742;6.432;2023-08-12T06:24:46;4.17;;;2.57;;
50225;SDS011;36113;50.742;6.432;2023-08-12T06:27:11;3.17;;;2.83;;
50225;SDS011;36113;50.742;6.432;2023-08-12T06:29:37;3.40;;;2.20;;
50225;SDS011;36113;50.742;6.432;2023-08-12T06:32:02;1.83;;;1.73;;
50225;SDS011;36113;50.742;6.432;2023-08-12T06:34:27;1.90;;;1.70;;
50225;SDS011;36113;50.742;6.432;2023-08-12T06:36:53;1.67;;;1.57;;
50225;SDS011;36113;50.742;6.432;2023-08-12T06:39:18;1.80;;;1.40;;
50225;SDS011;36113;50.742;6.432;2023-08-12T06:41:43;1.97;;;1.50;;
50225;SDS011;36113;50.742;6.432;2023-08-12T06:44:08;1.93;;;1.30;;
50225;SDS011;36113;50.742;6.432;2023-08-12T06:46:34;1.93;;;1.83;;
50225;SDS011;36113;50.742;6.432;2023-08-12T06:48:59;1.97;;;1.67;;
50225;SDS011;36113;50.742;6.432;2023-08-12T06:51:24;3.60;;;1.57;;
50225;SDS011;36113;50.742;6.432;2023-08-12T06:53:50;1.90;;;1.57;;
50225;SDS011;36113;50.742;6.432;2023-08-12T06:56:15;4.20;;;1.63;;
50225;SDS011;36113;50.742;6.432;2023-08-12T06:58:40;1.17;;;1.17;;
50225;SDS011;36113;50.742;6.432;2023-08-12T07:01:06;2.63;;;1.57;;
50225;SDS011;36113;50.742;6.432;2023-08-12T07:03:31;4.23;;;1.63;;
50225;SDS011;36113;50.742;6.432;2023-08-12T07:05:57;2.50;;;1.55;;
50225;SDS011;36113;50.742;6.432;2023-08-12T07:08:23;2.07;;;1.30;;
50225;SDS011;36113;50.742;6.432;2023-08-12T07:10:48;3.07;;;1.67;;
50225;SDS011;36113;50.742;6.432;2023-08-12T07:13:13;2.20;;;1.40;;
50225;SDS011;36113;50.742;6.432;2023-08-12T07:15:39;1.20;;;1.20;;
50225;SDS011;36113;50.742;6.432;2023-08-12T07:18:04;4.70;;;1.50;;
50225;SDS011;36113;50.742;6.432;2023-08-12T07:20:30;1.57;;;1.47;;
50225;SDS011;36113;50.742;6.432;2023-08-12T07:22:55;1.50;;;1.40;;
50225;SDS011;36113;50.742;6.432;2023-08-12T07:25:21;1.70;;;1.60;;
50225;SDS011;36113;50.742;6.432;2023-08-12T07:27:46;1.80;;;1.60;;
50225;SDS011;36113;50.742;6.432;2023-08-12T07:30:11;1.40;;;1.30;;
50225;SDS011;36113;50.742;6.432;2023-08-12T07:32:37;1.70;;;1.60;;
50225;SDS011;36113;50.742;6.432;2023-08-12T07:35:03;2.13;;;1.47;;
50225;SDS011;36113;50.742;6.432;2023-08-12T07:37:31;2.17;;;1.70;;
50225;SDS011;36113;50.742;6.432;2023-08-12T07:39:56;4.10;;;1.37;;
50225;SDS011;36113;50.742;6.432;2023-08-12T07:42:21;5.57;;;1.70;;
50225;SDS011;36113;50.742;6.432;2023-08-12T07:44:47;2.37;;;1.70;;
50225;SDS011;36113;50.742;6.432;2023-08-12T07:47:12;1.70;;;1.57;;
50225;SDS011;36113;50.742;6.432;2023-08-12T07:49:37;1.93;;;1.77;;
50225;SDS011;36113;50.742;6.432;2023-08-12T07:52:03;1.63;;;1.40;;
50225;SDS011;36113;50.742;6.432;2023-08-12T07:54:28;1.80;;;1.70;;
50225;SDS011;36113;50.742;6.432;2023-08-12T07:56:54;5.17;;;1.50;;
50225;SDS011;36113;50.742;6.432;2023-08-12T07:59:19;3.73;;;1.93;;
50225;SDS011;36113;50.742;6.432;2023-08-12T08:01:45;1.88;;;1.65;;
50225;SDS011;36113;50.742;6.432;2023-08-12T08:04:11;1.80;;;1.70;;
50225;SDS011;36113;50.742;6.432;2023-08-12T08:06:36;1.70;;;1.60;;
50225;SDS011;36113;50.742;6.432;2023-08-12T08:09:02;2.27;;;2.07;;
50225;SDS011;36113;50.742;6.432;2023-08-12T08:11:28;1.50;;;1.33;;
50225;SDS011;36113;50.742;6.432;2023-08-12T08:13:55;1.75;;;1.65;;
50225;SDS011;36113;50.742;6.432;2023-08-12T08:16:20;7.63;;;1.60;;
50225;SDS011;36113;50.742;6.432;2023-08-12T08:18:45;2.67;;;1.43;;
50225;SDS011;36113;50.742;6.432;2023-08-12T08:21:11;1.50;;;1.23;;
50225;SDS011;36113;50.742;6.432;2023-08-12T08:23:36;1.27;;;1.20;;
50225;SDS011;36113;50.742;6.432;2023-08-12T08:26:01;1.27;;;0.90;;
50225;SDS011;36113;50.742;6.432;2023-08-12T08:28:27;1.43;;;0.83;;
50225;SDS011;36113;50.742;6.432;2023-08-12T08:30:52;0.80;;;0.80;;
50225;SDS011;36113;50.742;6.432;2023-08-12T08:33:18;1.00;;;0.60;;
50225;SDS011;36113;50.742;6.432;2023-08-12T08:35:43;2.43;;;1.10;;
50225;SDS011;36113;50.742;6.432;2023-08-12T08:38:09;0.77;;;0.77;;
50225;SDS011;36113;50.742;6.432;2023-08-12T08:40:34;0.70;;;0.70;;
50225;SDS011;36113;50.742;6.432;2023-08-12T08:43:01;1.13;;;0.87;;
50225;SDS011;36113;50.742;6.432;2023-08-12T08:45:31;1.30;;;0.90;;
50225;SDS011;36113;50.742;6.432;2023-08-12T08:47:59;1.08;;;0.80;;
50225;SDS011;36113;50.742;6.432;2023-08-12T08:50:25;0.88;;;0.88;;
50225;SDS011;36113;50.742;6.432;2023-08-12T08:52:52;0.80;;;0.80;;
50225;SDS011;36113;50.742;6.432;2023-08-12T08:55:18;1.75;;;0.88;;
50225;SDS011;36113;50.742;6.432;2023-08-12T08:57:43;0.70;;;0.70;;
50225;SDS011;36113;50.742;6.432;2023-08-12T09:00:12;0.65;;;0.63;;
50225;SDS011;36113;50.742;6.432;2023-08-12T09:02:37;0.87;;;0.87;;
50225;SDS011;36113;50.742;6.432;2023-08-12T09:05:04;0.77;;;0.70;;
50225;SDS011;36113;50.742;6.432;2023-08-12T09:07:30;0.85;;;0.80;;
50225;SDS011;36113;50.742;6.432;2023-08-12T09:09:56;3.28;;;0.70;;
50225;SDS011;36113;50.742;6.432;2023-08-12T09:12:23;0.95;;;0.80;;
50225;SDS011;36113;50.742;6.432;2023-08-12T09:14:49;0.60;;;0.60;;
50225;SDS011;36113;50.742;6.432;2023-08-12T09:17:14;0.60;;;0.60;;
50225;SDS011;36113;50.742;6.432;2023-08-12T09:19:40;1.52;;;0.75;;
50225;SDS011;36113;50.742;6.432;2023-08-12T09:22:07;1.73;;;0.80;;
50225;SDS011;36113;50.742;6.432;2023-08-12T09:24:34;0.68;;;0.68;;
50225;SDS011;36113;50.742;6.432;2023-08-12T09:27:00;0.70;;;0.70;;
50225;SDS011;36113;50.742;6.432;2023-08-12T09:29:29;0.83;;;0.80;;
50225;SDS011;36113;50.742;6.432;2023-08-12T09:32:05;0.70;;;0.70;;
50225;SDS011;36113;50.742;6.432;2023-08-12T09:34:38;2.30;;;0.68;;
50225;SDS011;36113;50.742;6.432;2023-08-12T09:37:12;1.00;;;1.00;;
50225;SDS011;36113;50.742;6.432;2023-08-12T09:39:38;2.53;;;0.80;;
50225;SDS011;36113;50.742;6.432;2023-08-12T09:42:03;2.00;;;1.00;;
50225;SDS011;36113;50.742;6.432;2023-08-12T09:44:29;3.90;;;1.10;;
50225;SDS011;36113;50.742;6.432;2023-08-12T09:46:57;1.43;;;1.20;;
50225;SDS011;36113;50.742;6.432;2023-08-12T09:49:23;1.20;;;1.08;;
50225;SDS011;36113;50.742;6.432;2023-08-12T09:51:50;1.10;;;1.00;;
50225;SDS011;36113;50.742;6.432;2023-08-12T09:54:16;2.00;;;1.00;;
50225;SDS011;36113;50.742;6.432;2023-08-12T09:59:11;2.30;;;0.88;;
50225;SDS011;36113;50.742;6.432;2023-08-12T10:01:37;3.58;;;1.10;;
50225;SDS011;36113;50.742;6.432;2023-08-12T10:04:06;1.85;;;0.93;;
50225;SDS011;36113;50.742;6.432;2023-08-12T10:06:40;1.30;;;1.23;;
50225;SDS011;36113;50.742;6.432;2023-08-12T10:09:06;1.00;;;1.00;;
50225;SDS011;36113;50.742;6.432;2023-08-12T10:11:36;2.65;;;1.13;;
50225;SDS011;36113;50.742;6.432;2023-08-12T10:14:03;3.38;;;1.00;;
50225;SDS011;36113;50.742;6.432;2023-08-12T10:16:29;0.82;;;0.82;;
50225;SDS011;36113;50.742;6.432;2023-08-12T10:18:55;1.10;;;1.10;;
50225;SDS011;36113;50.742;6.432;2023-08-12T10:21:23;0.90;;;0.90;;
50225;SDS011;36113;50.742;6.432;2023-08-12T10:23:49;2.20;;;1.08;;
50225;SDS011;36113;50.742;6.432;2023-08-12T10:26:15;1.33;;;1.10;;
50225;SDS011;36113;50.742;6.432;2023-08-12T10:28:42;1.15;;;1.15;;
50225;SDS011;36113;50.742;6.432;2023-08-12T10:31:08;1.23;;;1.10;;
50225;SDS011;36113;50.742;6.432;2023-08-12T10:33:36;1.30;;;1.00;;
50225;SDS011;36113;50.742;6.432;2023-08-12T10:36:03;0.90;;;0.90;;
50225;SDS011;36113;50.742;6.432;2023-08-12T10:38:29;2.15;;;0.80;;
50225;SDS011;36113;50.742;6.432;2023-08-12T10:41:13;0.70;;;0.70;;
50225;SDS011;36113;50.742;6.432;2023-08-12T10:46:32;1.08;;;1.00;;
50225;SDS011;36113;50.742;6.432;2023-08-12T10:49:01;2.05;;;1.00;;
50225;SDS011;36113;50.742;6.432;2023-08-12T10:51:42;2.80;;;1.08;;
50225;SDS011;36113;50.742;6.432;2023-08-12T10:54:24;1.02;;;0.95;;
50225;SDS011;36113;50.742;6.432;2023-08-12T10:57:04;2.10;;;0.60;;
50225;SDS011;36113;50.742;6.432;2023-08-12T11:04:41;1.08;;;0.98;;
50225;SDS011;36113;50.742;6.432;2023-08-12T11:07:20;0.70;;;0.70;;
50225;SDS011;36113;50.742;6.432;2023-08-12T11:15:31;0.70;;;0.70;;
50225;SDS011;36113;50.742;6.432;2023-08-12T11:17:57;0.70;;;0.70;;
50225;SDS011;36113;50.742;6.432;2023-08-12T11:20:23;0.75;;;0.75;;
50225;SDS011;36113;50.742;6.432;2023-08-12T11:22:49;0.90;;;0.63;;
50225;SDS011;36113;50.742;6.432;2023-08-12T11:25:15;2.88;;;0.82;;
50225;SDS011;36113;50.742;6.432;2023-08-12T11:27:42;0.87;;;0.87;;
50225;SDS011;36113;50.742;6.432;2023-08-12T11:30:11;0.60;;;0.60;;
50225;SDS011;36113;50.742;6.432;2023-08-12T11:32:40;0.98;;;0.80;;
50225;SDS011;36113;50.742;6.432;2023-08-12T11:35:09;1.00;;;1.00;;
50225;SDS011;36113;50.742;6.432;2023-08-12T11:40:05;0.70;;;0.70;;
50225;SDS011;36113;50.742;6.432;2023-08-12T11:42:33;0.82;;;0.80;;
50225;SDS011;36113;50.742;6.432;2023-08-12T11:44:59;1.45;;;0.80;;
50225;SDS011;36113;50.742;6.432;2023-08-12T11:47:24;1.37;;;0.83;;
50225;SDS011;36113;50.742;6.432;2023-08-12T11:49:51;0.60;;;0.60;;
50225;SDS011;36113;50.742;6.432;2023-08-12T11:52:17;0.77;;;0.77;;
50225;SDS011;36113;50.742;6.432;2023-08-12T11:54:43;5.27;;;1.40;;
50225;SDS011;36113;50.742;6.432;2023-08-12T11:57:08;3.00;;;0.77;;
50225;SDS011;36113;50.742;6.432;2023-08-12T11:59:34;12.13;;;1.33;;
50225;SDS011;36113;50.742;6.432;2023-08-12T12:02:01;1.33;;;1.10;;
50225;SDS011;36113;50.742;6.432;2023-08-12T12:04:27;1.63;;;0.75;;
50225;SDS011;36113;50.742;6.432;2023-08-12T12:06:52;2.83;;;0.90;;
50225;SDS011;36113;50.742;6.432;2023-08-12T12:09:17;0.67;;;0.67;;
50225;SDS011;36113;50.742;6.432;2023-08-12T12:11:43;1.37;;;0.70;;
50225;SDS011;36113;50.742;6.432;2023-08-12T12:14:09;0.40;;;0.40;;
50225;SDS011;36113;50.742;6.432;2023-08-12T12:19:15;2.47;;;0.65;;
50225;SDS011;36113;50.742;6.432;2023-08-12T12:21:48;0.60;;;0.60;;
50225;SDS011;36113;50.742;6.432;2023-08-12T12:24:15;1.90;;;0.75;;
50225;SDS011;36113;50.742;6.432;2023-08-12T12:26:41;3.40;;;0.63;;
50225;SDS011;36113;50.742;6.432;2023-08-12T12:29:07;1.00;;;0.70;;
50225;SDS011;36113;50.742;6.432;2023-08-12T12:31:33;0.98;;;0.70;;
50225;SDS011;36113;50.742;6.432;2023-08-12T12:34:02;0.60;;;0.60;;
50225;SDS011;36113;50.742;6.432;2023-08-12T12:36:31;0.82;;;0.80;;
50225;SDS011;36113;50.742;6.432;2023-08-12T12:38:58;0.40;;;0.40;;
50225;SDS011;36113;50.742;6.432;2023-08-12T12:41:24;0.53;;;0.30;;
50225;SDS011;36113;50.742;6.432;2023-08-12T12:43:49;0.60;;;0.30;;
50225;SDS011;36113;50.742;6.432;2023-08-12T12:46:15;0.93;;;0.10;;
50225;SDS011;36113;50.742;6.432;2023-08-12T12:48:41;0.30;;;0.30;;
50225;SDS011;36113;50.742;6.432;2023-08-12T12:51:07;0.22;;;0.22;;
50225;SDS011;36113;50.742;6.432;2023-08-12T12:53:32;0.37;;;0.33;;
50225;SDS011;36113;50.742;6.432;2023-08-12T12:55:57;0.37;;;0.30;;
50225;SDS011;36113;50.742;6.432;2023-08-12T12:58:28;0.10;;;0.10;;
50225;SDS011;36113;50.742;6.432;2023-08-12T13:00:54;0.10;;;0.10;;
50225;SDS011;36113;50.742;6.432;2023-08-12T13:03:19;0.30;;;0.10;;
50225;SDS011;36113;50.742;6.432;2023-08-12T13:05:44;0.87;;;0.30;;
50225;SDS011;36113;50.742;6.432;2023-08-12T13:08:10;0.30;;;0.30;;
50225;SDS011;36113;50.742;6.432;2023-08-12T13:10:35;0.23;;;0.20;;
50225;SDS011;36113;50.742;6.432;2023-08-12T13:13:00;1.30;;;0.20;;
50225;SDS011;36113;50.742;6.432;2023-08-12T13:15:26;0.20;;;0.20;;
50225;SDS011;36113;50.742;6.432;2023-08-12T13:17:51;2.63;;;0.30;;
50225;SDS011;36113;50.742;6.432;2023-08-12T13:20:17;0.10;;;0.10;;
50225;SDS011;36113;50.742;6.432;2023-08-12T13:22:42;0.30;;;0.30;;
50225;SDS011;36113;50.742;6.432;2023-08-12T13:25:07;0.33;;;0.33;;
50225;SDS011;36113;50.742;6.432;2023-08-12T13:27:33;0.30;;;0.30;;
50225;SDS011;36113;50.742;6.432;2023-08-12T13:29:58;0.47;;;0.47;;
50225;SDS011;36113;50.742;6.432;2023-08-12T13:32:23;1.10;;;0.40;;
50225;SDS011;36113;50.742;6.432;2023-08-12T13:34:49;0.53;;;0.43;;
50225;SDS011;36113;50.742;6.432;2023-08-12T13:37:14;1.27;;;0.40;;
50225;SDS011;36113;50.742;6.432;2023-08-12T13:39:39;0.40;;;0.40;;
50225;SDS011;36113;50.742;6.432;2023-08-12T13:42:05;1.43;;;0.50;;
50225;SDS011;36113;50.742;6.432;2023-08-12T13:44:33;0.82;;;0.30;;
50225;SDS011;36113;50.742;6.432;2023-08-12T13:46:58;0.23;;;0.23;;
50225;SDS011;36113;50.742;6.432;2023-08-12T13:49:24;0.37;;;0.37;;
50225;SDS011;36113;50.742;6.432;2023-08-12T13:51:49;0.40;;;0.40;;
50225;SDS011;36113;50.742;6.432;2023-08-12T13:54:15;2.23;;;0.40;;
50225;SDS011;36113;50.742;6.432;2023-08-12T13:56:40;0.37;;;0.37;;
50225;SDS011;36113;50.742;6.432;2023-08-12T13:59:06;0.63;;;0.33;;
50225;SDS011;36113;50.742;6.432;2023-08-12T14:01:31;0.37;;;0.37;;
50225;SDS011;36113;50.742;6.432;2023-08-12T14:03:56;0.90;;;0.23;;
50225;SDS011;36113;50.742;6.432;2023-08-12T14:06:21;0.80;;;0.50;;
50225;SDS011;36113;50.742;6.432;2023-08-12T14:08:47;0.50;;;0.50;;
50225;SDS011;36113;50.742;6.432;2023-08-12T14:11:12;0.50;;;0.50;;
50225;SDS011;36113;50.742;6.432;2023-08-12T14:13:37;0.20;;;0.20;;
50225;SDS011;36113;50.742;6.432;2023-08-12T14:16:03;0.87;;;0.43;;
50225;SDS011;36113;50.742;6.432;2023-08-12T14:18:28;1.90;;;0.70;;
50225;SDS011;36113;50.742;6.432;2023-08-12T14:20:53;0.77;;;0.77;;
50225;SDS011;36113;50.742;6.432;2023-08-12T14:23:19;0.40;;;0.40;;
50225;SDS011;36113;50.742;6.432;2023-08-12T14:25:44;0.40;;;0.40;;
50225;SDS011;36113;50.742;6.432;2023-08-12T14:28:09;2.53;;;0.70;;
50225;SDS011;36113;50.742;6.432;2023-08-12T14:30:34;0.73;;;0.50;;
50225;SDS011;36113;50.742;6.432;2023-08-12T14:33:00;3.10;;;0.63;;
50225;SDS011;36113;50.742;6.432;2023-08-12T14:35:25;0.77;;;0.50;;
50225;SDS011;36113;50.742;6.432;2023-08-12T14:37:50;0.50;;;0.50;;
50225;SDS011;36113;50.742;6.432;2023-08-12T14:40:16;0.53;;;0.53;;
50225;SDS011;36113;50.742;6.432;2023-08-12T14:42:41;0.80;;;0.80;;
50225;SDS011;36113;50.742;6.432;2023-08-12T14:45:06;0.73;;;0.73;;
50225;SDS011;36113;50.742;6.432;2023-08-12T14:47:32;1.20;;;0.80;;
50225;SDS011;36113;50.742;6.432;2023-08-12T14:49:58;0.87;;;0.77;;
50225;SDS011;36113;50.742;6.432;2023-08-12T14:52:23;1.50;;;1.03;;
50225;SDS011;36113;50.742;6.432;2023-08-12T14:54:48;0.63;;;0.63;;
50225;SDS011;36113;50.742;6.432;2023-08-12T14:57:14;3.00;;;0.70;;
50225;SDS011;36113;50.742;6.432;2023-08-12T14:59:39;0.93;;;0.87;;
50225;SDS011;36113;50.742;6.432;2023-08-12T15:02:05;1.33;;;0.70;;
50225;SDS011;36113;50.742;6.432;2023-08-12T15:04:31;0.80;;;0.80;;
50225;SDS011;36113;50.742;6.432;2023-08-12T15:06:57;2.15;;;0.90;;
50225;SDS011;36113;50.742;6.432;2023-08-12T15:09:22;1.10;;;0.80;;
50225;SDS011;36113;50.742;6.432;2023-08-12T15:11:48;0.97;;;0.70;;
50225;SDS011;36113;50.742;6.432;2023-08-12T15:14:13;0.70;;;0.70;;
50225;SDS011;36113;50.742;6.432;2023-08-12T15:16:38;1.90;;;0.70;;